sensor_id;sensor_type;location;lat;lon;timestamp;P1;durP1;ratioP1;P2;durP2;ratioP2
23230;SDS011;11784;49.818;8.632;2024-03-23T00:54:12;3.17;;;1.85;;
23230;SDS011;11784;49.818;8.632;2024-03-23T00:56:38;5.28;;;1.90;;
23230;SDS011;11784;49.818;8.632;2024-03-23T00:59:04;3.95;;;2.13;;
23230;SDS011;11784;49.818;8.632;2024-03-23T01:01:30;4.32;;;2.45;;
23230;SDS011;11784;49.818;8.632;2024-03-23T01:03:56;3.65;;;2.03;;
23230;SDS011;11784;49.818;8.632;2024-03-23T01:06:22;3.15;;;1.95;;
23230;SDS011;11784;49.818;8.632;2024-03-23T01:08:47;3.53;;;1.80;;
23230;SDS011;11784;49.818;8.632;2024-03-23T01:11:14;3.75;;;1.90;;
23230;SDS011;11784;49.818;8.632;2024-03-23T01:13:40;4.10;;;2.13;;
23230;SDS011;11784;49.818;8.632;2024-03-23T01:16:06;3.45;;;2.13;;
23230;SDS011;11784;49.818;8.632;2024-03-23T01:18:31;3.83;;;2.03;;
23230;SDS011;11784;49.818;8.632;2024-03-23T01:20:58;3.08;;;1.70;;
23230;SDS011;11784;49.818;8.632;2024-03-23T01:23:24;2.50;;;1.70;;
23230;SDS011;11784;49.818;8.632;2024-03-23T01:25:52;4.68;;;2.30;;
23230;SDS011;11784;49.818;8.632;2024-03-23T01:28:19;3.08;;;2.15;;
23230;SDS011;11784;49.818;8.632;2024-03-23T01:30:45;3.88;;;2.08;;
23230;SDS011;11784;49.818;8.632;2024-03-23T01:33:11;4.03;;;2.00;;
23230;SDS011;11784;49.818;8.632;2024-03-23T01:35:37;5.20;;;1.98;;
23230;SDS011;11784;49.818;8.632;2024-03-23T01:38:03;5.18;;;1.95;;
23230;SDS011;11784;49.818;8.632;2024-03-23T01:40:29;3.42;;;2.00;;
23230;SDS011;11784;49.818;8.632;2024-03-23T01:43:01;2.72;;;2.03;;
23230;SDS011;11784;49.818;8.632;2024-03-23T01:45:28;2.67;;;1.75;;
23230;SDS011;11784;49.818;8.632;2024-03-23T01:47:55;4.78;;;2.13;;
23230;SDS011;11784;49.818;8.632;2024-03-23T01:50:21;4.25;;;1.98;;
23230;SDS011;11784;49.818;8.632;2024-03-23T01:52:48;2.47;;;1.85;;
23230;SDS011;11784;49.818;8.632;2024-03-23T01:55:14;4.05;;;2.30;;
23230;SDS011;11784;49.818;8.632;2024-03-23T01:57:40;2.55;;;1.50;;
23230;SDS011;11784;49.818;8.632;2024-03-23T02:00:06;2.75;;;1.80;;
23230;SDS011;11784;49.818;8.632;2024-03-23T02:02:32;2.80;;;1.77;;
23230;SDS011;11784;49.818;8.632;2024-03-23T02:04:58;3.92;;;2.28;;
23230;SDS011;11784;49.818;8.632;2024-03-23T02:07:24;6.25;;;1.52;;
23230;SDS011;11784;49.818;8.632;2024-03-23T02:09:53;3.53;;;1.90;;
23230;SDS011;11784;49.818;8.632;2024-03-23T02:12:19;3.35;;;1.98;;
23230;SDS011;11784;49.818;8.632;2024-03-23T02:14:46;3.70;;;1.83;;
23230;SDS011;11784;49.818;8.632;2024-03-23T02:17:12;4.38;;;1.95;;
23230;SDS011;11784;49.818;8.632;2024-03-23T02:19:38;3.72;;;2.17;;
23230;SDS011;11784;49.818;8.632;2024-03-23T02:22:04;4.93;;;1.90;;
23230;SDS011;11784;49.818;8.632;2024-03-23T02:24:30;2.42;;;1.60;;
23230;SDS011;11784;49.818;8.632;2024-03-23T02:26:56;4.22;;;1.90;;
23230;SDS011;11784;49.818;8.632;2024-03-23T02:29:22;1.98;;;1.58;;
23230;SDS011;11784;49.818;8.632;2024-03-23T02:31:48;3.08;;;1.88;;
23230;SDS011;11784;49.818;8.632;2024-03-23T02:34:14;3.25;;;1.80;;
23230;SDS011;11784;49.818;8.632;2024-03-23T02:36:40;3.85;;;1.83;;
23230;SDS011;11784;49.818;8.632;2024-03-23T02:39:06;3.97;;;1.70;;
23230;SDS011;11784;49.818;8.632;2024-03-23T02:41:32;3.28;;;2.00;;
23230;SDS011;11784;49.818;8.632;2024-03-23T02:43:57;3.78;;;2.05;;
23230;SDS011;11784;49.818;8.632;2024-03-23T02:46:23;4.53;;;2.15;;
23230;SDS011;11784;49.818;8.632;2024-03-23T02:48:49;4.78;;;1.95;;
23230;SDS011;11784;49.818;8.632;2024-03-23T02:51:15;4.20;;;2.05;;
23230;SDS011;11784;49.818;8.632;2024-03-23T02:53:41;2.35;;;1.50;;
23230;SDS011;11784;49.818;8.632;2024-03-23T02:56:07;5.28;;;2.28;;
23230;SDS011;11784;49.818;8.632;2024-03-23T02:58:33;4.18;;;2.20;;
23230;SDS011;11784;49.818;8.632;2024-03-23T03:00:59;2.95;;;2.05;;
23230;SDS011;11784;49.818;8.632;2024-03-23T03:03:25;3.08;;;1.92;;
23230;SDS011;11784;49.818;8.632;2024-03-23T03:05:55;3.15;;;1.88;;
23230;SDS011;11784;49.818;8.632;2024-03-23T03:08:21;3.53;;;2.10;;
23230;SDS011;11784;49.818;8.632;2024-03-23T03:10:47;4.90;;;1.80;;
23230;SDS011;11784;49.818;8.632;2024-03-23T03:13:13;2.60;;;1.63;;
23230;SDS011;11784;49.818;8.632;2024-03-23T03:15:48;4.22;;;1.75;;
23230;SDS011;11784;49.818;8.632;2024-03-23T03:18:14;3.58;;;2.15;;
23230;SDS011;11784;49.818;8.632;2024-03-23T03:20:40;3.13;;;1.90;;
23230;SDS011;11784;49.818;8.632;2024-03-23T03:23:06;2.70;;;1.95;;
23230;SDS011;11784;49.818;8.632;2024-03-23T03:25:32;2.92;;;1.73;;
23230;SDS011;11784;49.818;8.632;2024-03-23T03:27:58;3.38;;;2.15;;
23230;SDS011;11784;49.818;8.632;2024-03-23T03:30:24;3.22;;;1.95;;
23230;SDS011;11784;49.818;8.632;2024-03-23T03:32:53;5.10;;;2.00;;
23230;SDS011;11784;49.818;8.632;2024-03-23T03:35:19;3.10;;;1.80;;
23230;SDS011;11784;49.818;8.632;2024-03-23T03:37:45;2.95;;;2.10;;
23230;SDS011;11784;49.818;8.632;2024-03-23T03:40:12;3.72;;;1.92;;
23230;SDS011;11784;49.818;8.632;2024-03-23T03:42:39;2.58;;;1.80;;
23230;SDS011;11784;49.818;8.632;2024-03-23T03:45:06;3.60;;;2.05;;
23230;SDS011;11784;49.818;8.632;2024-03-23T03:47:32;2.58;;;1.88;;
23230;SDS011;11784;49.818;8.632;2024-03-23T03:49:58;4.63;;;2.20;;
23230;SDS011;11784;49.818;8.632;2024-03-23T03:52:24;2.85;;;1.70;;
23230;SDS011;11784;49.818;8.632;2024-03-23T03:54:50;3.78;;;2.00;;
23230;SDS011;11784;49.818;8.632;2024-03-23T03:57:16;3.67;;;2.00;;
23230;SDS011;11784;49.818;8.632;2024-03-23T03:59:42;2.95;;;1.73;;
23230;SDS011;11784;49.818;8.632;2024-03-23T04:02:08;3.83;;;2.28;;
23230;SDS011;11784;49.818;8.632;2024-03-23T04:04:34;3.90;;;1.98;;
23230;SDS011;11784;49.818;8.632;2024-03-23T04:07:00;4.00;;;1.90;;
23230;SDS011;11784;49.818;8.632;2024-03-23T04:09:26;3.63;;;2.08;;
23230;SDS011;11784;49.818;8.632;2024-03-23T04:11:52;2.97;;;1.63;;
23230;SDS011;11784;49.818;8.632;2024-03-23T04:14:18;3.58;;;1.90;;
23230;SDS011;11784;49.818;8.632;2024-03-23T04:16:44;2.75;;;1.70;;
23230;SDS011;11784;49.818;8.632;2024-03-23T04:19:10;3.35;;;1.77;;
23230;SDS011;11784;49.818;8.632;2024-03-23T04:21:36;2.63;;;1.75;;
23230;SDS011;11784;49.818;8.632;2024-03-23T04:24:03;3.92;;;1.92;;
23230;SDS011;11784;49.818;8.632;2024-03-23T04:26:29;3.88;;;2.00;;
23230;SDS011;11784;49.818;8.632;2024-03-23T04:28:55;2.53;;;1.90;;
23230;SDS011;11784;49.818;8.632;2024-03-23T04:31:21;3.50;;;1.70;;
23230;SDS011;11784;49.818;8.632;2024-03-23T04:33:47;2.45;;;1.70;;
23230;SDS011;11784;49.818;8.632;2024-03-23T04:36:13;3.13;;;2.00;;
23230;SDS011;11784;49.818;8.632;2024-03-23T04:38:39;2.47;;;1.70;;
23230;SDS011;11784;49.818;8.632;2024-03-23T04:41:05;2.50;;;1.80;;
23230;SDS011;11784;49.818;8.632;2024-03-23T04:43:30;3.03;;;1.80;;
23230;SDS011;11784;49.818;8.632;2024-03-23T04:45:56;4.55;;;2.00;;
23230;SDS011;11784;49.818;8.632;2024-03-23T04:48:23;3.67;;;1.90;;
23230;SDS011;11784;49.818;8.632;2024-03-23T04:50:49;3.33;;;1.75;;
23230;SDS011;11784;49.818;8.632;2024-03-23T04:53:15;3.55;;;1.90;;
23230;SDS011;11784;49.818;8.632;2024-03-23T04:55:42;2.88;;;1.65;;
23230;SDS011;11784;49.818;8.632;2024-03-23T04:58:08;3.28;;;1.90;;
23230;SDS011;11784;49.818;8.632;2024-03-23T05:00:34;3.55;;;2.00;;
23230;SDS011;11784;49.818;8.632;2024-03-23T05:03:00;2.95;;;2.00;;
23230;SDS011;11784;49.818;8.632;2024-03-23T05:05:26;2.90;;;1.88;;
23230;SDS011;11784;49.818;8.632;2024-03-23T05:07:52;3.03;;;2.15;;
23230;SDS011;11784;49.818;8.632;2024-03-23T05:10:18;3.05;;;1.67;;
23230;SDS011;11784;49.818;8.632;2024-03-23T05:12:44;3.45;;;1.90;;
23230;SDS011;11784;49.818;8.632;2024-03-23T05:15:10;2.72;;;1.67;;
23230;SDS011;11784;49.818;8.632;2024-03-23T05:17:37;3.00;;;1.70;;
23230;SDS011;11784;49.818;8.632;2024-03-23T05:20:04;2.28;;;1.77;;
23230;SDS011;11784;49.818;8.632;2024-03-23T05:22:34;2.58;;;2.03;;
23230;SDS011;11784;49.818;8.632;2024-03-23T05:25:00;3.35;;;2.03;;
23230;SDS011;11784;49.818;8.632;2024-03-23T05:27:29;3.25;;;1.77;;
23230;SDS011;11784;49.818;8.632;2024-03-23T05:29:55;2.83;;;1.70;;
23230;SDS011;11784;49.818;8.632;2024-03-23T05:32:21;2.45;;;1.75;;
23230;SDS011;11784;49.818;8.632;2024-03-23T05:34:47;3.65;;;1.85;;
23230;SDS011;11784;49.818;8.632;2024-03-23T05:37:15;4.18;;;1.80;;
23230;SDS011;11784;49.818;8.632;2024-03-23T05:39:41;3.47;;;2.30;;
23230;SDS011;11784;49.818;8.632;2024-03-23T05:42:07;3.78;;;1.63;;
23230;SDS011;11784;49.818;8.632;2024-03-23T05:44:33;4.90;;;1.90;;
23230;SDS011;11784;49.818;8.632;2024-03-23T05:46:59;2.65;;;1.45;;
23230;SDS011;11784;49.818;8.632;2024-03-23T05:49:25;2.33;;;1.52;;
23230;SDS011;11784;49.818;8.632;2024-03-23T05:51:51;2.58;;;1.60;;
23230;SDS011;11784;49.818;8.632;2024-03-23T05:54:17;2.03;;;1.33;;
23230;SDS011;11784;49.818;8.632;2024-03-23T05:56:43;2.53;;;1.50;;
23230;SDS011;11784;49.818;8.632;2024-03-23T05:59:09;2.97;;;1.60;;
23230;SDS011;11784;49.818;8.632;2024-03-23T06:01:35;2.45;;;1.48;;
23230;SDS011;11784;49.818;8.632;2024-03-23T06:04:00;1.88;;;1.35;;
23230;SDS011;11784;49.818;8.632;2024-03-23T06:06:27;2.58;;;1.10;;
23230;SDS011;11784;49.818;8.632;2024-03-23T06:08:55;2.03;;;1.02;;
23230;SDS011;11784;49.818;8.632;2024-03-23T06:11:21;2.17;;;1.42;;
23230;SDS011;11784;49.818;8.632;2024-03-23T06:13:46;2.90;;;1.20;;
23230;SDS011;11784;49.818;8.632;2024-03-23T06:16:12;1.50;;;1.00;;
23230;SDS011;11784;49.818;8.632;2024-03-23T06:18:39;1.73;;;1.17;;
23230;SDS011;11784;49.818;8.632;2024-03-23T06:21:05;2.70;;;1.30;;
23230;SDS011;11784;49.818;8.632;2024-03-23T06:23:31;2.67;;;1.38;;
23230;SDS011;11784;49.818;8.632;2024-03-23T06:25:57;3.88;;;1.30;;
23230;SDS011;11784;49.818;8.632;2024-03-23T06:28:23;2.28;;;1.20;;
23230;SDS011;11784;49.818;8.632;2024-03-23T06:30:49;2.17;;;1.15;;
23230;SDS011;11784;49.818;8.632;2024-03-23T06:33:15;2.00;;;1.13;;
23230;SDS011;11784;49.818;8.632;2024-03-23T06:35:41;1.55;;;1.10;;
23230;SDS011;11784;49.818;8.632;2024-03-23T06:38:07;1.33;;;1.10;;
23230;SDS011;11784;49.818;8.632;2024-03-23T06:40:33;1.50;;;0.93;;
23230;SDS011;11784;49.818;8.632;2024-03-23T06:42:58;1.10;;;0.80;;
23230;SDS011;11784;49.818;8.632;2024-03-23T06:45:24;2.03;;;1.00;;
23230;SDS011;11784;49.818;8.632;2024-03-23T06:47:50;1.35;;;1.15;;
23230;SDS011;11784;49.818;8.632;2024-03-23T06:50:17;1.67;;;1.10;;
23230;SDS011;11784;49.818;8.632;2024-03-23T06:52:43;2.97;;;0.90;;
23230;SDS011;11784;49.818;8.632;2024-03-23T06:55:09;1.70;;;0.98;;
23230;SDS011;11784;49.818;8.632;2024-03-23T06:57:35;1.52;;;0.93;;
23230;SDS011;11784;49.818;8.632;2024-03-23T07:00:00;1.15;;;0.80;;
23230;SDS011;11784;49.818;8.632;2024-03-23T07:02:26;1.10;;;0.95;;
23230;SDS011;11784;49.818;8.632;2024-03-23T07:04:53;1.35;;;0.88;;
23230;SDS011;11784;49.818;8.632;2024-03-23T07:07:19;1.60;;;1.15;;
23230;SDS011;11784;49.818;8.632;2024-03-23T07:09:44;3.08;;;1.00;;
23230;SDS011;11784;49.818;8.632;2024-03-23T07:12:10;2.25;;;0.90;;
23230;SDS011;11784;49.818;8.632;2024-03-23T07:14:36;2.13;;;1.00;;
23230;SDS011;11784;49.818;8.632;2024-03-23T07:17:02;1.88;;;0.93;;
23230;SDS011;11784;49.818;8.632;2024-03-23T07:19:28;1.48;;;0.98;;
23230;SDS011;11784;49.818;8.632;2024-03-23T07:21:54;1.38;;;0.80;;
23230;SDS011;11784;49.818;8.632;2024-03-23T07:24:20;1.88;;;0.90;;
23230;SDS011;11784;49.818;8.632;2024-03-23T07:26:46;1.92;;;1.00;;
23230;SDS011;11784;49.818;8.632;2024-03-23T07:29:12;1.58;;;0.82;;
23230;SDS011;11784;49.818;8.632;2024-03-23T07:31:38;1.00;;;0.80;;
23230;SDS011;11784;49.818;8.632;2024-03-23T07:34:04;1.52;;;1.00;;
23230;SDS011;11784;49.818;8.632;2024-03-23T07:36:30;1.48;;;0.90;;
23230;SDS011;11784;49.818;8.632;2024-03-23T07:38:56;1.25;;;0.80;;
23230;SDS011;11784;49.818;8.632;2024-03-23T07:41:22;1.40;;;0.98;;
23230;SDS011;11784;49.818;8.632;2024-03-23T07:43:48;1.17;;;0.80;;
23230;SDS011;11784;49.818;8.632;2024-03-23T07:46:15;3.28;;;0.90;;
23230;SDS011;11784;49.818;8.632;2024-03-23T07:48:41;1.92;;;1.00;;
23230;SDS011;11784;49.818;8.632;2024-03-23T07:51:08;1.70;;;0.80;;
23230;SDS011;11784;49.818;8.632;2024-03-23T07:53:35;0.85;;;0.60;;
23230;SDS011;11784;49.818;8.632;2024-03-23T07:56:05;1.42;;;0.93;;
23230;SDS011;11784;49.818;8.632;2024-03-23T07:58:31;1.70;;;0.80;;
23230;SDS011;11784;49.818;8.632;2024-03-23T08:01:03;1.73;;;0.90;;
23230;SDS011;11784;49.818;8.632;2024-03-23T08:03:30;1.55;;;0.90;;
23230;SDS011;11784;49.818;8.632;2024-03-23T08:05:56;3.55;;;0.82;;
23230;SDS011;11784;49.818;8.632;2024-03-23T08:08:22;1.25;;;0.80;;
23230;SDS011;11784;49.818;8.632;2024-03-23T08:10:48;1.25;;;0.70;;
23230;SDS011;11784;49.818;8.632;2024-03-23T08:13:14;2.15;;;1.05;;
23230;SDS011;11784;49.818;8.632;2024-03-23T08:15:41;3.85;;;1.02;;
23230;SDS011;11784;49.818;8.632;2024-03-23T08:18:07;2.33;;;1.00;;
23230;SDS011;11784;49.818;8.632;2024-03-23T08:20:33;1.98;;;0.70;;
23230;SDS011;11784;49.818;8.632;2024-03-23T08:22:59;0.95;;;0.60;;
23230;SDS011;11784;49.818;8.632;2024-03-23T08:25:25;0.98;;;0.77;;
23230;SDS011;11784;49.818;8.632;2024-03-23T08:27:50;1.23;;;0.80;;
23230;SDS011;11784;49.818;8.632;2024-03-23T08:30:17;1.70;;;0.80;;
23230;SDS011;11784;49.818;8.632;2024-03-23T08:32:43;1.45;;;0.73;;
23230;SDS011;11784;49.818;8.632;2024-03-23T08:35:09;1.25;;;0.70;;
23230;SDS011;11784;49.818;8.632;2024-03-23T08:37:35;2.72;;;0.95;;
23230;SDS011;11784;49.818;8.632;2024-03-23T08:40:01;0.95;;;0.75;;
23230;SDS011;11784;49.818;8.632;2024-03-23T08:42:29;0.90;;;0.70;;
23230;SDS011;11784;49.818;8.632;2024-03-23T08:44:55;1.00;;;0.70;;
23230;SDS011;11784;49.818;8.632;2024-03-23T08:47:21;1.52;;;0.60;;
23230;SDS011;11784;49.818;8.632;2024-03-23T08:49:47;1.88;;;0.77;;
23230;SDS011;11784;49.818;8.632;2024-03-23T08:52:13;1.05;;;0.70;;
23230;SDS011;11784;49.818;8.632;2024-03-23T08:54:39;1.05;;;0.50;;
23230;SDS011;11784;49.818;8.632;2024-03-23T08:57:05;1.77;;;0.80;;
23230;SDS011;11784;49.818;8.632;2024-03-23T08:59:32;1.65;;;0.52;;
23230;SDS011;11784;49.818;8.632;2024-03-23T09:01:58;1.52;;;0.85;;
23230;SDS011;11784;49.818;8.632;2024-03-23T09:04:24;0.95;;;0.57;;
23230;SDS011;11784;49.818;8.632;2024-03-23T09:06:50;2.85;;;0.85;;
23230;SDS011;11784;49.818;8.632;2024-03-23T09:09:16;2.15;;;0.90;;
23230;SDS011;11784;49.818;8.632;2024-03-23T09:11:42;1.00;;;0.80;;
23230;SDS011;11784;49.818;8.632;2024-03-23T09:14:08;2.50;;;0.73;;
23230;SDS011;11784;49.818;8.632;2024-03-23T09:16:34;2.15;;;0.65;;
23230;SDS011;11784;49.818;8.632;2024-03-23T09:19:00;4.88;;;0.75;;
23230;SDS011;11784;49.818;8.632;2024-03-23T09:21:26;2.28;;;0.63;;
23230;SDS011;11784;49.818;8.632;2024-03-23T09:23:52;3.65;;;0.80;;
23230;SDS011;11784;49.818;8.632;2024-03-23T09:26:18;1.40;;;0.70;;
23230;SDS011;11784;49.818;8.632;2024-03-23T09:28:44;0.95;;;0.70;;
23230;SDS011;11784;49.818;8.632;2024-03-23T09:31:10;1.15;;;0.68;;
23230;SDS011;11784;49.818;8.632;2024-03-23T09:33:39;3.28;;;0.63;;
23230;SDS011;11784;49.818;8.632;2024-03-23T09:36:05;1.90;;;0.60;;
23230;SDS011;11784;49.818;8.632;2024-03-23T09:38:32;1.27;;;0.63;;
23230;SDS011;11784;49.818;8.632;2024-03-23T09:40:58;0.85;;;0.63;;
23230;SDS011;11784;49.818;8.632;2024-03-23T09:43:24;3.60;;;0.60;;
23230;SDS011;11784;49.818;8.632;2024-03-23T09:45:50;1.35;;;0.80;;
23230;SDS011;11784;49.818;8.632;2024-03-23T09:48:16;2.28;;;0.80;;
23230;SDS011;11784;49.818;8.632;2024-03-23T09:50:43;2.22;;;0.70;;
23230;SDS011;11784;49.818;8.632;2024-03-23T09:53:10;3.17;;;0.90;;
23230;SDS011;11784;49.818;8.632;2024-03-23T09:55:37;1.95;;;0.70;;
23230;SDS011;11784;49.818;8.632;2024-03-23T09:58:03;1.38;;;0.73;;
23230;SDS011;11784;49.818;8.632;2024-03-23T10:00:33;1.48;;;0.50;;
23230;SDS011;11784;49.818;8.632;2024-03-23T10:19:41;1.75;;;0.50;;
23230;SDS011;11784;49.818;8.632;2024-03-23T10:22:12;2.75;;;0.60;;
23230;SDS011;11784;49.818;8.632;2024-03-23T10:52:10;3.15;;;0.80;;
23230;SDS011;11784;49.818;8.632;2024-03-23T10:54:36;1.83;;;1.20;;
23230;SDS011;11784;49.818;8.632;2024-03-23T10:57:09;1.98;;;0.73;;
23230;SDS011;11784;49.818;8.632;2024-03-23T10:59:36;3.47;;;0.93;;
23230;SDS011;11784;49.818;8.632;2024-03-23T11:02:03;4.03;;;0.98;;
23230;SDS011;11784;49.818;8.632;2024-03-23T11:04:32;3.00;;;0.80;;
23230;SDS011;11784;49.818;8.632;2024-03-23T11:06:59;1.50;;;0.70;;
23230;SDS011;11784;49.818;8.632;2024-03-23T11:18:44;0.95;;;0.55;;
23230;SDS011;11784;49.818;8.632;2024-03-23T11:24:19;1.38;;;0.45;;
23230;SDS011;11784;49.818;8.632;2024-03-23T11:26:46;0.93;;;0.40;;
23230;SDS011;11784;49.818;8.632;2024-03-23T11:29:13;0.68;;;0.20;;
23230;SDS011;11784;49.818;8.632;2024-03-23T11:31:45;0.82;;;0.20;;
23230;SDS011;11784;49.818;8.632;2024-03-23T11:34:11;1.00;;;0.20;;
23230;SDS011;11784;49.818;8.632;2024-03-23T11:36:37;0.50;;;0.30;;
23230;SDS011;11784;49.818;8.632;2024-03-23T11:39:13;0.10;;;0.10;;
23230;SDS011;11784;49.818;8.632;2024-03-23T11:41:47;0.30;;;0.20;;
23230;SDS011;11784;49.818;8.632;2024-03-23T11:44:35;0.10;;;0.10;;
23230;SDS011;11784;49.818;8.632;2024-03-23T11:47:07;0.50;;;0.20;;
23230;SDS011;11784;49.818;8.632;2024-03-23T11:49:33;0.20;;;0.20;;
23230;SDS011;11784;49.818;8.632;2024-03-23T11:52:05;0.20;;;0.20;;
23230;SDS011;11784;49.818;8.632;2024-03-23T11:54:31;0.30;;;0.20;;
23230;SDS011;11784;49.818;8.632;2024-03-23T11:57:00;0.20;;;0.20;;
23230;SDS011;11784;49.818;8.632;2024-03-23T11:59:31;0.30;;;0.10;;
23230;SDS011;11784;49.818;8.632;2024-03-23T12:01:57;0.20;;;0.20;;
23230;SDS011;11784;49.818;8.632;2024-03-23T12:04:26;0.20;;;0.20;;
23230;SDS011;11784;49.818;8.632;2024-03-23T12:07:09;0.70;;;0.10;;
23230;SDS011;11784;49.818;8.632;2024-03-23T12:09:35;0.20;;;0.15;;
23230;SDS011;11784;49.818;8.632;2024-03-23T12:12:11;0.27;;;0.20;;
23230;SDS011;11784;49.818;8.632;2024-03-23T12:14:40;0.17;;;0.10;;
23230;SDS011;11784;49.818;8.632;2024-03-23T12:19:35;0.30;;;0.20;;
23230;SDS011;11784;49.818;8.632;2024-03-23T12:22:02;0.10;;;0.10;;
23230;SDS011;11784;49.818;8.632;2024-03-23T12:24:28;0.20;;;0.20;;
23230;SDS011;11784;49.818;8.632;2024-03-23T12:26:54;0.00;;;0.00;;
23230;SDS011;11784;49.818;8.632;2024-03-23T12:29:21;0.10;;;0.10;;
23230;SDS011;11784;49.818;8.632;2024-03-23T12:31:46;0.80;;;0.20;;
23230;SDS011;11784;49.818;8.632;2024-03-23T12:34:12;0.10;;;0.10;;
23230;SDS011;11784;49.818;8.632;2024-03-23T12:36:38;0.33;;;0.20;;
23230;SDS011;11784;49.818;8.632;2024-03-23T12:39:04;0.45;;;0.10;;
23230;SDS011;11784;49.818;8.632;2024-03-23T12:41:30;0.17;;;0.17;;
23230;SDS011;11784;49.818;8.632;2024-03-23T12:43:56;0.20;;;0.10;;
23230;SDS011;11784;49.818;8.632;2024-03-23T12:46:22;0.30;;;0.20;;
23230;SDS011;11784;49.818;8.632;2024-03-23T12:48:48;0.20;;;0.10;;
23230;SDS011;11784;49.818;8.632;2024-03-23T12:51:14;0.70;;;0.20;;
23230;SDS011;11784;49.818;8.632;2024-03-23T12:53:40;0.10;;;0.10;;
23230;SDS011;11784;49.818;8.632;2024-03-23T12:56:06;0.10;;;0.10;;
23230;SDS011;11784;49.818;8.632;2024-03-23T12:58:32;0.27;;;0.20;;
23230;SDS011;11784;49.818;8.632;2024-03-23T13:00:58;0.35;;;0.17;;
23230;SDS011;11784;49.818;8.632;2024-03-23T13:03:24;0.17;;;0.17;;
23230;SDS011;11784;49.818;8.632;2024-03-23T13:05:54;0.03;;;0.03;;
23230;SDS011;11784;49.818;8.632;2024-03-23T13:08:20;0.00;;;0.00;;
23230;SDS011;11784;49.818;8.632;2024-03-23T13:10:46;0.20;;;0.10;;
23230;SDS011;11784;49.818;8.632;2024-03-23T13:13:12;0.20;;;0.10;;
23230;SDS011;11784;49.818;8.632;2024-03-23T13:15:38;0.20;;;0.20;;
23230;SDS011;11784;49.818;8.632;2024-03-23T13:18:04;0.17;;;0.10;;
23230;SDS011;11784;49.818;8.632;2024-03-23T13:20:30;0.20;;;0.20;;
23230;SDS011;11784;49.818;8.632;2024-03-23T13:22:56;0.20;;;0.10;;
23230;SDS011;11784;49.818;8.632;2024-03-23T13:25:22;0.17;;;0.17;;
23230;SDS011;11784;49.818;8.632;2024-03-23T13:27:48;0.30;;;0.20;;
23230;SDS011;11784;49.818;8.632;2024-03-23T13:30:14;0.30;;;0.20;;
23230;SDS011;11784;49.818;8.632;2024-03-23T13:32:40;0.20;;;0.20;;
23230;SDS011;11784;49.818;8.632;2024-03-23T13:35:06;0.28;;;0.25;;
23230;SDS011;11784;49.818;8.632;2024-03-23T13:37:33;0.30;;;0.20;;
23230;SDS011;11784;49.818;8.632;2024-03-23T13:39:59;0.15;;;0.15;;
23230;SDS011;11784;49.818;8.632;2024-03-23T13:42:25;0.40;;;0.20;;
23230;SDS011;11784;49.818;8.632;2024-03-23T13:44:51;0.20;;;0.20;;
23230;SDS011;11784;49.818;8.632;2024-03-23T13:47:17;0.20;;;0.20;;
23230;SDS011;11784;49.818;8.632;2024-03-23T18:32:04;1.55;;;0.52;;
23230;SDS011;11784;49.818;8.632;2024-03-23T18:34:30;0.75;;;0.30;;
23230;SDS011;11784;49.818;8.632;2024-03-23T18:36:55;0.22;;;0.10;;
23230;SDS011;11784;49.818;8.632;2024-03-23T18:39:21;0.20;;;0.17;;
23230;SDS011;11784;49.818;8.632;2024-03-23T18:41:47;0.20;;;0.20;;
23230;SDS011;11784;49.818;8.632;2024-03-23T18:44:12;0.10;;;0.10;;
23230;SDS011;11784;49.818;8.632;2024-03-23T23:27:15;0.43;;;0.30;;
23230;SDS011;11784;49.818;8.632;2024-03-23T23:29:41;0.32;;;0.15;;
23230;SDS011;11784;49.818;8.632;2024-03-23T23:32:07;0.25;;;0.13;;
23230;SDS011;11784;49.818;8.632;2024-03-23T23:34:33;0.10;;;0.10;;
23230;SDS011;11784;49.818;8.632;2024-03-23T23:36:59;0.10;;;0.10;;
23230;SDS011;11784;49.818;8.632;2024-03-23T23:39:25;0.10;;;0.10;;
23230;SDS011;11784;49.818;8.632;2024-03-23T23:41:51;0.10;;;0.10;;
23230;SDS011;11784;49.818;8.632;2024-03-23T23:44:17;0.10;;;0.10;;
23230;SDS011;11784;49.818;8.632;2024-03-23T23:46:43;0.10;;;0.10;;
23230;SDS011;11784;49.818;8.632;2024-03-23T23:49:09;0.28;;;0.10;;
23230;SDS011;11784;49.818;8.632;2024-03-23T23:51:35;0.10;;;0.10;;
23230;SDS011;11784;49.818;8.632;2024-03-23T23:54:01;0.00;;;0.00;;
23230;SDS011;11784;49.818;8.632;2024-03-23T23:56:27;0.00;;;0.00;;
23230;SDS011;11784;49.818;8.632;2024-03-23T23:58:53;0.00;;;0.00;;
